Data for 02/17/2007

Time Sea-Level Adjusted Pressure Absolute Pressure Temperature Relative Humidity Dew Point   
(mb) (inHg) (mb) (inHg) (C) (F) (%) (C) (F)
00:05 1026 30.3 855 25.25 -0.3 31.5 48 -10 14.1
00:10 1026 30.3 855 25.25 -0.3 31.5 48 -9.9 14.1
00:15 1026 30.3 855 25.25 -0.3 31.5 48 -10 13.9
00:20 1026 30.3 855 25.25 -0.3 31.5 47 -10.2 13.6
00:25 1026 30.3 855 25.25 -0.2 31.7 46 -10.3 13.4
00:30 1026 30.3 855 25.25 -0.1 31.9 46 -10.4 13.3
00:35 1026 30.3 855 25.25 -0.1 31.8 47 -10.1 13.8
00:40 1026 30.3 855 25.25 -0.4 31.3 47 -10.5 13.1
00:45 1026 30.3 855 25.25 -0.4 31.3 46 -10.7 12.8
00:50 1026 30.3 855 25.25 -0.4 31.3 47 -10.5 13.1
00:55 1026 30.3 855 25.25 -0.8 30.6 47 -10.6 12.9
01:00 1026 30.3 855 25.25 -1 30.2 47 -11 12.1
01:05 1026 30.3 855 25.25 -1.1 30 46 -11.3 11.7
01:10 1026 30.3 855 25.25 -1 30.2 46 -11.4 11.6
01:15 1026 30.3 855 25.25 -0.9 30.3 46 -11.2 11.8
01:20 1026 30.3 855 25.25 -1.1 30 47 -11 12.2
01:25 1026 30.3 855 25.25 -0.9 30.4 46 -11 12.2
01:30 1026 30.3 855 25.25 -1 30.2 48 -10.7 12.8
01:35 1026 30.3 855 25.25 -1.6 29.1 50 -10.6 12.9
01:40 1026 30.3 855 25.25 -1.7 28.9 49 -11 12.3
01:45 1026 30.3 855 25.25 -1.6 29.1 49 -10.9 12.4
01:50 1026 30.3 855 25.25 -1.6 29.1 49 -11 12.2
01:55 1026 30.3 855 25.25 -1.6 29.1 49 -11 12.1
02:00 1026 30.3 855 25.25 -2 28.4 48 -11.6 11.1
02:05 1026 30.3 855 25.25 -2.1 28.2 47 -12 10.4
02:10 1026 30.3 855 25.25 -2 28.3 45 -12.4 9.8
02:15 1026 30.3 855 25.25 -1.9 28.7 44 -12.5 9.4
02:20 1026 30.3 855 25.25 -1.8 28.8 43 -12.8 8.9
02:25 1026 30.3 855 25.25 -1.4 29.4 40 -13.3 8
02:30 1026 30.3 855 25.25 -1.9 28.6 43 -12.9 8.8
02:35 1026 30.3 855 25.25 -2.2 28.1 42 -13.5 7.8
02:40 1026 30.3 855 25.25 -2.2 28 42 -13.6 7.5
02:45 1026 30.3 855 25.25 -2.2 28.1 44 -12.8 9
02:50 1026 30.3 855 25.25 -3 26.7 46 -13 8.5
02:55 1026 30.3 855 25.25 -3.4 25.9 45 -13.8 7.1
03:00 1026 30.3 855 25.25 -3.2 26.3 45 -13.6 7.6
03:05 1026 30.3 855 25.25 -2.6 27.3 42 -13.9 7
03:10 1026 30.3 855 25.25 -2.1 28.2 40 -14.1 6.6
03:15 1026 30.3 855 25.25 -2 28.4 38 -14.7 5.6
03:20 1026 30.3 855 25.25 -1.6 29.1 35 -15.2 4.7
03:25 1026 30.3 855 25.25 -1.7 28.9 36 -14.9 5.2
03:30 1026 30.3 855 25.25 -1.8 28.7 37 -14.7 5.6
03:35 1026 30.3 855 25.25 -1.9 28.6 36 -15.1 4.9
03:40 1026 30.3 855 25.25 -2 28.4 37 -14.9 5.1
03:45 1026 30.3 855 25.25 -2.2 28.1 39 -14.5 5.9
03:50 1026 30.3 855 25.25 -2.4 27.7 45 -12.7 9.2
03:55 1026 30.3 855 25.25 -3.5 25.7 50 -12.4 9.7
04:00 1026 30.3 855 25.25 -4 24.8 51 -12.8 9
04:05 1026 30.3 855 25.25 -3.6 25.5 45 -13.9 6.9
04:10 1026 30.3 855 25.25 -2.7 27.1 43 -13.6 7.5
04:15 1026 30.3 855 25.25 -2.4 27.7 41 -14 6.9
04:20 1026 30.3 855 25.25 -1.9 28.5 40 -13.9 7
04:25 1026 30.3 855 25.25 -1.8 28.8 41 -13.5 7.7
04:30 1026 30.3 855 25.25 -1.8 28.8 39 -14 6.8
04:35 1026 30.3 855 25.25 -1.8 28.8 40 -13.6 7.6
04:40 1026 30.3 855 25.25 -2 28.3 42 -13.3 8
04:45 1026 30.3 855 25.25 -2.2 28 42 -13.5 7.7
04:50 1026 30.3 855 25.25 -2.3 27.8 43 -13.4 7.9
04:55 1026 30.3 855 25.25 -2.1 28.2 43 -13.2 8.3
05:00 1026 30.3 855 25.25 -2 28.4 42 -13.2 8.2
05:05 1026 30.3 855 25.25 -1.9 28.6 41 -13.4 7.9
05:10 1026 30.3 855 25.25 -1.7 28.9 42 -13 8.6
05:15 1026 30.3 855 25.25 -1.9 28.6 43 -12.9 8.8
05:20 1026 30.3 855 25.25 -2.1 28.2 45 -12.7 9.2
05:25 1026 30.3 855 25.25 -2.4 27.6 46 -12.6 9.4
05:30 1026 30.3 855 25.25 -2.6 27.4 47 -12.5 9.4
05:35 1026 30.3 855 25.25 -3 26.5 48 -12.6 9.4
05:40 1026 30.3 855 25.25 -3.7 25.4 50 -12.6 9.3
05:45 1026 30.3 855 25.25 -4 24.9 51 -12.8 9
05:50 1026 30.3 855 25.25 -4 24.8 50 -13 8.7
05:55 1026 30.3 855 25.25 -4.3 24.3 51 -13.1 8.4
06:00 1026 30.3 855 25.25 -4.7 23.5 53 -13 8.6
06:05 1026 30.3 855 25.25 -4.7 23.5 53 -13 8.7
06:10 1026 30.3 855 25.25 -4.2 24.5 52 -12.7 9.2
06:15 1026 30.3 855 25.25 -3.9 25 51 -12.6 9.3
06:20 1026 30.3 855 25.25 -3.7 25.3 52 -12.3 9.8
06:25 1026 30.3 855 25.25 -3.8 25.2 52 -12.2 10
06:30 1026 30.3 855 25.25 -3.7 25.3 52 -12.2 10.1
06:35 1026 30.3 855 25.25 -3.5 25.8 51 -12.3 9.8
06:40 1026 30.3 855 25.25 -2.9 26.9 48 -12.5 9.5
06:45 1026 30.3 855 25.25 -2.1 28.1 46 -12.4 9.8
06:50 1026 30.3 855 25.25 -1.9 28.6 46 -12.1 10.2
06:55 1026 30.3 855 25.25 -1.8 28.7 45 -12.2 10
07:00 1026 30.3 855 25.25 -1.6 29.1 44 -12.3 9.8
07:05 1026 30.3 855 25.25 -1.5 29.4 44 -12.3 9.9
07:10 1026 30.3 855 25.25 -1.3 29.6 43 -12.3 9.8
07:15 1026 30.3 855 25.25 -1.4 29.5 44 -12.1 10.1
07:20 1026 30.3 855 25.25 -1.7 28.9 45 -12.2 10
07:25 1026 30.3 855 25.25 -1.9 28.6 46 -11.9 10.5
07:30 1026 30.3 855 25.25 -2 28.4 46 -12.1 10.2
07:35 1026 30.3 855 25.25 -2.2 28.1 47 -12.1 10.2
07:40 1026 30.3 855 25.25 -2.3 27.9 47 -12.2 10
07:45 1026 30.3 855 25.25 -2.4 27.6 48 -12.1 10.2
07:50 1026 30.3 855 25.25 -2.5 27.5 48 -12.1 10.3
07:55 1026 30.3 855 25.25 -2.3 27.8 47 -12.3 9.9
08:00 1026 30.3 855 25.25 -2.8 26.9 49 -12.2 10
08:05 1026 30.3 855 25.25 -3.5 25.8 51 -12.2 10.1
08:10 1026 30.3 855 25.25 -3.2 26.2 49 -12.5 9.6
08:15 1026 30.3 855 25.25 -2.6 27.3 48 -12.3 9.9
08:20 1026 30.3 855 25.25 -1.8 28.7 46 -12 10.4
08:25 1026 30.3 855 25.25 -1.5 29.4 45 -11.9 10.7
08:30 1026 30.3 855 25.25 -1.4 29.4 44 -12.3 9.8
08:35 1026 30.3 855 25.25 -1.3 29.7 43 -12.2 10
08:40 1026 30.3 855 25.25 -1 30.3 42 -12.2 10
08:45 1026 30.3 855 25.25 -1.4 29.4 44 -12.1 10.2
08:50 1026 30.3 855 25.25 -1.6 29.1 44 -12.4 9.7
08:55 1026 30.3 855 25.25 -1.3 29.6 43 -12.4 9.8
09:00 1026 30.3 855 25.25 -0.8 30.7 41 -12.3 9.9
09:05 1026 30.3 855 25.25 -0.3 31.4 41 -12.2 10.1
09:10 1026 30.3 855 25.25 -0.1 31.8 40 -12.1 10.2
09:15 1026 30.3 855 25.25 0.5 32.9 40 -11.6 11.1
09:20 1026 30.3 855 25.25 0.3 32.5 41 -11.6 11.2
09:25 1026 30.3 855 25.25 -0.2 31.7 44 -11.1 12
09:30 1026 30.3 855 25.25 -0.6 30.9 46 -10.9 12.4
09:35 1026 30.3 855 25.25 -0.6 31 46 -10.7 12.7
09:40 1026 30.3 855 25.25 0 32 43 -11.2 11.8
09:45 1026 30.3 855 25.25 0.5 32.8 42 -11 12.1
09:50 1026 30.3 855 25.25 0.8 33.5 42 -10.7 12.8
09:55 1026 30.3 855 25.25 0.2 32.4 46 -10 13.9
10:00 1026 30.3 855 25.25 -0.4 31.2 47 -10.3 13.4
10:05 1026 30.3 855 25.25 0.5 32.8 44 -10.3 13.4
10:10 1026 30.3 855 25.25 1.8 35.2 42 -9.9 14.1
10:15 1026 30.3 855 25.25 2.5 36.4 38 -10.5 13.1
10:20 1026 30.3 855 25.25 3.4 38.2 35 -10.7 12.7
10:25 1026 30.3 855 25.25 3.9 39.1 35 -10.1 13.8
10:30 1026 30.3 855 25.25 3.8 38.9 36 -9.8 14.4
10:35 1026 30.3 856 25.28 2.5 36.6 40 -9.6 14.7
10:40 1026 30.3 856 25.28 2.9 37.2 38 -10 14
10:45 1026 30.3 856 25.28 3.7 38.6 38 -9.5 14.9
10:50 1026 30.3 855 25.25 4.6 40.2 34 -10.1 13.8
10:55 1026 30.3 855 25.25 5.5 41.9 31 -10.3 13.4
11:00 1026 30.3 855 25.25 6.2 43.2 31 -9.5 14.9
11:05 1026 30.3 855 25.25 6.1 43.1 30 -10.2 13.6
11:10 1026 30.3 855 25.25 5.5 41.9 30 -10.7 12.8
11:15 1026 30.3 855 25.25 6 42.7 31 -9.8 14.3
11:20 1026 30.3 855 25.25 5.5 41.9 35 -8.9 16.1
11:25 1026 30.3 855 25.25 5.2 41.4 34 -9.2 15.4
11:30 1026 30.3 855 25.25 5.7 42.3 30 -10.6 13
11:35 1026 30.3 855 25.25 6.5 43.8 31 -9.4 15.1
11:40 1026 30.3 855 25.25 7.1 44.8 28 -10.2 13.6
11:45 1026 30.3 855 25.25 7.5 45.4 28 -9.8 14.4
11:50 1026 30.3 855 25.25 7.7 45.8 26 -10.8 12.6
11:55 1026 30.3 855 25.25 6.6 44 29 -10.2 13.6
12:00 1026 30.3 855 25.25 6.4 43.4 29 -10.6 13
12:05 1026 30.3 855 25.25 6.1 43 29 -10.7 12.7
12:10 1026 30.3 855 25.25 6.7 44 29 -10.4 13.4
12:15 1025 30.27 855 25.25 6.8 44.2 29 -10.2 13.7
12:20 1025 30.27 855 25.25 7.9 46.1 27 -10.2 13.6
12:25 1026 30.3 855 25.25 8 46.5 28 -9.4 15.2
12:30 1026 30.3 855 25.25 7.8 46 27 -10 14
12:35 1025 30.27 855 25.25 8.1 46.7 29 -9 15.8
12:40 1025 30.27 855 25.25 8.3 47 27 -9.4 15.1
12:45 1025 30.27 854 25.22 8.1 46.5 29 -9 15.9
12:50 1025 30.27 854 25.22 7 44.7 30 -9.3 15.2
12:55 1025 30.27 854 25.22 6.4 43.5 32 -9.3 15.3
13:00 1025 30.27 854 25.22 6 42.8 33 -9.2 15.4
13:05 1025 30.27 854 25.22 6.5 43.7 31 -9.5 14.9
13:10 1025 30.27 854 25.22 7.5 45.6 29 -9.2 15.5
13:15 1025 30.27 854 25.22 6.9 44.4 30 -9.4 15
13:20 1025 30.27 854 25.22 7.5 45.4 31 -8.5 16.6
13:25 1025 30.27 854 25.22 7.9 46.3 29 -9 15.8
13:30 1025 30.27 854 25.22 7.7 45.9 32 -8.1 17.5
13:35 1025 30.27 854 25.22 7.3 45.2 33 -8.1 17.4
13:40 1025 30.27 854 25.22 7.9 46.2 31 -8.4 16.9
13:45 1025 30.27 854 25.22 8.1 46.6 29 -8.7 16.4
13:50 1025 30.27 854 25.22 7.6 45.8 30 -8.7 16.4
13:55 1024 30.24 854 25.22 8.5 47.4 28 -8.9 16
14:00 1024 30.24 854 25.22 8.1 46.6 29 -8.7 16.4
14:05 1024 30.24 853 25.19 6.9 44.3 32 -8.9 16
14:10 1024 30.24 853 25.19 7 44.6 32 -8.7 16.3
14:15 1024 30.24 853 25.19 6.9 44.4 32 -8.7 16.3
14:20 1024 30.24 853 25.19 6.8 44.3 32 -8.7 16.4
14:25 1024 30.24 853 25.19 8 46.3 30 -8.4 16.9
14:30 1024 30.24 853 25.19 9.4 48.9 29 -7.5 18.4
14:35 1024 30.24 853 25.19 9.6 49.2 28 -8 17.6
14:40 1024 30.24 853 25.19 8.7 47.6 30 -8 17.6
14:45 1024 30.24 853 25.19 8.8 47.9 30 -7.8 17.9
14:50 1024 30.24 853 25.19 8.4 47 32 -7.6 18.4
14:55 1023 30.21 853 25.19 9.1 48.3 29 -8.2 17.2
15:00 1023 30.21 853 25.19 9.5 49 28 -7.9 17.7
15:05 1023 30.21 852 25.16 9 48.2 30 -7.6 18.3
15:10 1023 30.21 852 25.16 7.9 46.1 31 -8.2 17.2
15:15 1023 30.21 852 25.16 8.8 47.8 30 -7.9 17.9
15:20 1023 30.21 852 25.16 8.3 47 31 -8 17.7
15:25 1023 30.21 852 25.16 8.6 47.5 30 -8.2 17.3
15:30 1023 30.21 852 25.16 9.6 49.3 29 -7.5 18.4
15:35 1023 30.21 852 25.16 9.4 48.9 29 -7.6 18.3
15:40 1023 30.21 852 25.16 8.8 47.8 30 -7.9 17.8
15:45 1023 30.21 852 25.16 8.1 46.6 32 -7.7 18.1
15:50 1023 30.21 852 25.16 8.1 46.7 32 -7.8 18
15:55 1023 30.21 852 25.16 8.7 47.7 31 -7.6 18.4
16:00 1023 30.21 852 25.16 8.5 47.2 31 -7.8 17.9
16:05 1023 30.21 852 25.16 8.9 47.9 31 -7.5 18.4
16:10 1023 30.21 852 25.16 8.9 48 30 -7.7 18.2
16:15 1023 30.21 852 25.16 9.2 48.6 29 -7.7 18.1
16:20 1023 30.21 852 25.16 9.5 49 31 -6.8 19.7
16:25 1022 30.18 852 25.16 8.3 46.9 34 -6.7 19.9
16:30 1023 30.21 852 25.16 7.1 44.8 35 -7.4 18.7
16:35 1023 30.21 852 25.16 6.8 44.3 36 -7.4 18.7
16:40 1023 30.21 852 25.16 7.3 45.2 35 -7 19.3
16:45 1022 30.18 852 25.16 7.5 45.5 36 -6.6 20.1
16:50 1022 30.18 852 25.16 7.2 44.9 36 -6.8 19.8
16:55 1022 30.18 852 25.16 6.8 44.2 39 -6.3 20.7
17:00 1022 30.18 851 25.13 6.5 43.8 39 -6.4 20.5
17:05 1022 30.18 851 25.13 6.7 44.1 38 -6.6 20.1
17:10 1022 30.18 851 25.13 6.7 44 41 -5.5 22.1
17:15 1022 30.18 851 25.13 6.1 43 40 -6.5 20.2
17:20 1022 30.18 851 25.13 6.7 44 40 -5.9 21.4
17:25 1022 30.18 851 25.13 5.8 42.4 41 -6.6 20.1
17:30 1022 30.18 851 25.13 5.5 41.9 41 -6.7 20
17:35 1022 30.18 851 25.13 5.6 42 41 -6.6 20.2
17:40 1022 30.18 851 25.13 5.5 42 40 -6.9 19.6
17:45 1022 30.18 851 25.13 5.4 41.6 40 -7.1 19.3
17:50 1022 30.18 851 25.13 5 41 41 -7.1 19.3
17:55 1022 30.18 851 25.13 4.6 40.2 45 -6.3 20.7
18:00 1022 30.18 851 25.13 4.2 39.6 45 -6.5 20.2
18:05 1022 30.18 851 25.13 4.3 39.8 42 -7.4 18.7
18:10 1022 30.18 851 25.13 4.4 40 42 -7.3 18.9
18:15 1022 30.18 851 25.13 4.4 39.9 44 -6.9 19.5
18:20 1021 30.15 851 25.13 4 39.3 43 -7.5 18.6
18:25 1021 30.15 851 25.13 4.2 39.6 46 -6.5 20.3
18:30 1021 30.15 851 25.13 3.9 39 49 -6 21.3
18:35 1021 30.15 851 25.13 3.2 37.8 51 -5.9 21.4
18:40 1021 30.15 851 25.13 3.2 37.8 51 -6 21.3
18:45 1021 30.15 851 25.13 3 37.4 54 -5.4 22.3
18:50 1021 30.15 851 25.13 2.4 36.3 56 -5.5 22.2
18:55 1021 30.15 850 25.1 2.7 36.9 50 -6.6 20.2
19:00 1021 30.15 850 25.1 3.1 37.6 51 -6.2 20.9
19:05 1021 30.15 850 25.1 3.7 38.6 45 -7.2 19.1
19:10 1021 30.15 850 25.1 4.4 39.9 44 -6.7 19.9
19:15 1021 30.15 850 25.1 4.5 40 44 -6.8 19.7
19:20 1021 30.15 850 25.1 4.4 40 43 -7 19.4
19:25 1021 30.15 850 25.1 3.9 38.9 48 -6 21.1
19:30 1021 30.15 850 25.1 3.2 37.8 50 -6.3 20.7
19:35 1021 30.15 850 25.1 2.6 36.7 52 -6.2 20.8
19:40 1021 30.15 850 25.1 2 35.6 53 -6.6 20.1
19:45 1021 30.15 850 25.1 2 35.5 53 -6.7 19.9
19:50 1021 30.15 850 25.1 1.6 34.9 55 -6.4 20.4
19:55 1020 30.12 850 25.1 1.4 34.4 55 -6.8 19.8
20:00 1020 30.12 850 25.1 1.4 34.5 54 -6.8 19.7
20:05 1020 30.12 849 25.07 1.4 34.5 54 -7 19.3
20:10 1020 30.12 849 25.07 1.4 34.4 55 -6.7 19.9
20:15 1020 30.12 849 25.07 1.8 35.2 49 -8 17.7
20:20 1020 30.12 849 25.07 2.2 36 48 -7.5 18.4
20:25 1020 30.12 849 25.07 2.8 37.1 46 -7.7 18.2
20:30 1020 30.12 849 25.07 2.6 36.6 49 -7.1 19.2
20:35 1020 30.12 849 25.07 2 35.6 52 -6.9 19.5
20:40 1020 30.12 849 25.07 1.7 35 50 -7.6 18.3
20:45 1020 30.12 849 25.07 1.9 35.3 49 -7.7 18.2
20:50 1020 30.12 849 25.07 2 35.5 50 -7.4 18.7
20:55 1020 30.12 849 25.07 2 35.6 49 -7.6 18.2
21:00 1020 30.12 849 25.07 2.2 35.9 49 -7.5 18.5
21:05 1020 30.12 849 25.07 1.5 34.7 51 -7.5 18.5
21:10 1020 30.12 849 25.07 1.2 34.1 51 -7.8 18
21:15 1020 30.12 849 25.07 0.3 32.5 55 -7.8 17.9
21:20 1020 30.12 849 25.07 0.6 33.1 52 -8.2 17.3
21:25 1020 30.12 849 25.07 1 33.8 48 -8.8 16.2
21:30 1020 30.12 849 25.07 0.9 33.5 51 -8.2 17.3
21:35 1020 30.12 849 25.07 1 33.9 49 -8.5 16.7
21:40 1020 30.12 849 25.07 0.3 32.5 52 -8.4 16.8
21:45 1020 30.12 849 25.07 0.7 33.3 49 -8.7 16.3
21:50 1020 30.12 849 25.07 0 32 52 -8.6 16.5
21:55 1020 30.12 849 25.07 0.1 32.2 52 -8.6 16.5
22:00 1019 30.09 849 25.07 0.3 32.5 52 -8.5 16.6
22:05 1019 30.09 849 25.07 0.1 32.1 53 -8.4 16.9
22:10 1019 30.09 849 25.07 -0 31.9 52 -8.7 16.4
22:15 1019 30.09 849 25.07 -0.1 31.8 53 -8.5 16.8
22:20 1019 30.09 848 25.04 -0.3 31.5 53 -8.6 16.4
22:25 1019 30.09 848 25.04 -0.7 30.8 55 -8.7 16.3
22:30 1019 30.09 848 25.04 -0.2 31.6 50 -9.3 15.2
22:35 1019 30.09 848 25.04 0.6 33.2 45 -10 14
22:40 1019 30.09 848 25.04 1.4 34.5 45 -9.2 15.5
22:45 1019 30.09 848 25.04 0.9 33.7 46 -9.5 14.9
22:50 1019 30.09 848 25.04 0.8 33.4 48 -9 15.9
22:55 1019 30.09 848 25.04 0.1 32.2 50 -9.3 15.3
23:00 1019 30.09 848 25.04 -0.1 31.8 50 -9.3 15.2
23:05 1019 30.09 848 25.04 -0.2 31.6 49 -9.6 14.7
23:10 1019 30.09 848 25.04 -0.3 31.4 51 -9.2 15.4
23:15 1018 30.06 848 25.04 -0.7 30.8 51 -9.6 14.7
23:20 1018 30.06 848 25.04 -0.5 31.2 50 -9.6 14.7
23:25 1018 30.06 847 25.01 -0.7 30.7 51 -9.7 14.6
23:30 1018 30.06 847 25.01 -0.6 31 49 -9.9 14.1
23:35 1018 30.06 847 25.01 0 32 47 -10 13.9
23:40 1018 30.06 847 25.01 0.1 32.2 47 -10 14
23:45 1018 30.06 847 25.01 -0 31.9 47 -9.9 14.1
23:50 1018 30.06 847 25.01 -0.3 31.5 48 -10.1 13.9
23:55 1018 30.06 847 25.01 -0.4 31.4 49 -9.9 14.2
24:00 1018 30.06 847 25.01 -0.3 31.4 48 -9.9 14.1